sensor_id;sensor_type;location;lat;lon;timestamp;temperature;humidity
41294;DHT22;27037;52.010;4.446;2023-02-03T00:01:01;9.40;99.90
41294;DHT22;27037;52.010;4.446;2023-02-03T00:03:27;9.40;99.90
41294;DHT22;27037;52.010;4.446;2023-02-03T00:05:53;9.40;99.90
41294;DHT22;27037;52.010;4.446;2023-02-03T00:08:20;9.40;99.90
41294;DHT22;27037;52.010;4.446;2023-02-03T00:10:47;9.40;99.90
41294;DHT22;27037;52.010;4.446;2023-02-03T00:13:13;9.40;99.90
41294;DHT22;27037;52.010;4.446;2023-02-03T00:15:39;9.40;99.90
41294;DHT22;27037;52.010;4.446;2023-02-03T00:18:04;9.40;99.90
41294;DHT22;27037;52.010;4.446;2023-02-03T00:20:30;9.40;99.90
41294;DHT22;27037;52.010;4.446;2023-02-03T00:23:07;9.30;99.90
41294;DHT22;27037;52.010;4.446;2023-02-03T00:25:33;9.40;99.90
41294;DHT22;27037;52.010;4.446;2023-02-03T00:27:59;9.40;99.90
41294;DHT22;27037;52.010;4.446;2023-02-03T00:30:24;9.40;99.90
41294;DHT22;27037;52.010;4.446;2023-02-03T00:32:50;9.40;99.90
41294;DHT22;27037;52.010;4.446;2023-02-03T00:35:16;9.40;99.90
41294;DHT22;27037;52.010;4.446;2023-02-03T00:37:41;9.40;99.90
41294;DHT22;27037;52.010;4.446;2023-02-03T00:40:07;9.40;99.90
41294;DHT22;27037;52.010;4.446;2023-02-03T00:42:34;9.40;99.90
41294;DHT22;27037;52.010;4.446;2023-02-03T00:45:00;9.30;99.90
41294;DHT22;27037;52.010;4.446;2023-02-03T00:47:26;9.40;99.90
41294;DHT22;27037;52.010;4.446;2023-02-03T00:49:51;9.40;99.90
41294;DHT22;27037;52.010;4.446;2023-02-03T00:52:17;9.40;99.90
41294;DHT22;27037;52.010;4.446;2023-02-03T00:54:43;9.40;99.90
41294;DHT22;27037;52.010;4.446;2023-02-03T00:57:08;9.40;99.90
41294;DHT22;27037;52.010;4.446;2023-02-03T00:59:34;9.40;99.90
41294;DHT22;27037;52.010;4.446;2023-02-03T01:01:59;9.40;99.90
41294;DHT22;27037;52.010;4.446;2023-02-03T01:04:25;9.40;99.90
41294;DHT22;27037;52.010;4.446;2023-02-03T01:06:51;9.40;99.90
41294;DHT22;27037;52.010;4.446;2023-02-03T01:09:20;9.40;99.90
41294;DHT22;27037;52.010;4.446;2023-02-03T01:11:46;9.50;99.90
41294;DHT22;27037;52.010;4.446;2023-02-03T01:14:11;9.50;99.90
41294;DHT22;27037;52.010;4.446;2023-02-03T01:16:37;9.50;99.90
41294;DHT22;27037;52.010;4.446;2023-02-03T01:19:04;9.50;99.90
41294;DHT22;27037;52.010;4.446;2023-02-03T01:21:31;9.50;99.90
41294;DHT22;27037;52.010;4.446;2023-02-03T01:23:58;9.50;99.90
41294;DHT22;27037;52.010;4.446;2023-02-03T01:26:24;9.60;99.90
41294;DHT22;27037;52.010;4.446;2023-02-03T01:28:54;9.60;99.90
41294;DHT22;27037;52.010;4.446;2023-02-03T01:31:28;9.60;99.90
41294;DHT22;27037;52.010;4.446;2023-02-03T01:33:54;9.60;99.90
41294;DHT22;27037;52.010;4.446;2023-02-03T01:36:23;9.70;99.90
41294;DHT22;27037;52.010;4.446;2023-02-03T01:38:50;9.70;99.90
41294;DHT22;27037;52.010;4.446;2023-02-03T01:41:18;9.70;99.90
41294;DHT22;27037;52.010;4.446;2023-02-03T01:43:46;9.70;99.90
41294;DHT22;27037;52.010;4.446;2023-02-03T01:48:58;9.80;99.90
41294;DHT22;27037;52.010;4.446;2023-02-03T01:51:26;9.80;99.90
41294;DHT22;27037;52.010;4.446;2023-02-03T01:53:52;9.80;99.90
41294;DHT22;27037;52.010;4.446;2023-02-03T01:56:19;9.90;99.90
41294;DHT22;27037;52.010;4.446;2023-02-03T01:58:46;9.90;99.90
41294;DHT22;27037;52.010;4.446;2023-02-03T02:01:12;9.90;99.90
41294;DHT22;27037;52.010;4.446;2023-02-03T02:03:40;9.90;99.90
41294;DHT22;27037;52.010;4.446;2023-02-03T02:06:08;9.90;99.90
41294;DHT22;27037;52.010;4.446;2023-02-03T02:08:36;9.90;99.90
41294;DHT22;27037;52.010;4.446;2023-02-03T02:11:02;9.90;99.90
41294;DHT22;27037;52.010;4.446;2023-02-03T02:13:30;9.90;99.90
41294;DHT22;27037;52.010;4.446;2023-02-03T02:16:11;9.90;99.90
41294;DHT22;27037;52.010;4.446;2023-02-03T02:18:49;9.90;99.90
41294;DHT22;27037;52.010;4.446;2023-02-03T02:21:28;9.90;99.90
41294;DHT22;27037;52.010;4.446;2023-02-03T02:27:09;9.90;99.90
41294;DHT22;27037;52.010;4.446;2023-02-03T02:32:19;9.90;99.90
41294;DHT22;27037;52.010;4.446;2023-02-03T02:40:22;9.90;99.90
41294;DHT22;27037;52.010;4.446;2023-02-03T02:43:11;9.90;99.90
41294;DHT22;27037;52.010;4.446;2023-02-03T02:45:50;9.90;99.90
41294;DHT22;27037;52.010;4.446;2023-02-03T02:48:25;9.90;99.90
41294;DHT22;27037;52.010;4.446;2023-02-03T02:50:55;9.90;99.90
41294;DHT22;27037;52.010;4.446;2023-02-03T02:53:25;9.90;99.90
41294;DHT22;27037;52.010;4.446;2023-02-03T02:55:54;9.90;99.90
41294;DHT22;27037;52.010;4.446;2023-02-03T02:58:22;9.90;99.90
41294;DHT22;27037;52.010;4.446;2023-02-03T03:00:49;9.90;99.90
41294;DHT22;27037;52.010;4.446;2023-02-03T03:03:20;9.90;99.90
41294;DHT22;27037;52.010;4.446;2023-02-03T03:05:53;9.90;99.90
41294;DHT22;27037;52.010;4.446;2023-02-03T03:08:29;10.00;99.90
41294;DHT22;27037;52.010;4.446;2023-02-03T03:10:57;10.00;99.90
41294;DHT22;27037;52.010;4.446;2023-02-03T03:13:28;10.00;99.90
41294;DHT22;27037;52.010;4.446;2023-02-03T03:15:57;10.00;99.90
41294;DHT22;27037;52.010;4.446;2023-02-03T03:21:28;10.00;99.90
41294;DHT22;27037;52.010;4.446;2023-02-03T03:23:58;10.00;99.90
41294;DHT22;27037;52.010;4.446;2023-02-03T03:26:33;10.00;99.90
41294;DHT22;27037;52.010;4.446;2023-02-03T03:29:20;10.00;99.90
41294;DHT22;27037;52.010;4.446;2023-02-03T03:31:47;10.00;99.90
41294;DHT22;27037;52.010;4.446;2023-02-03T03:34:14;10.00;99.90
41294;DHT22;27037;52.010;4.446;2023-02-03T03:36:52;10.00;99.90
41294;DHT22;27037;52.010;4.446;2023-02-03T03:39:59;10.00;99.90
41294;DHT22;27037;52.010;4.446;2023-02-03T03:45:02;10.00;99.90
41294;DHT22;27037;52.010;4.446;2023-02-03T03:50:02;10.00;99.90
41294;DHT22;27037;52.010;4.446;2023-02-03T03:52:31;10.00;99.90
41294;DHT22;27037;52.010;4.446;2023-02-03T03:55:00;9.90;99.90
41294;DHT22;27037;52.010;4.446;2023-02-03T03:57:38;9.90;99.90
41294;DHT22;27037;52.010;4.446;2023-02-03T04:00:06;9.90;99.90
41294;DHT22;27037;52.010;4.446;2023-02-03T04:02:35;9.90;99.90
41294;DHT22;27037;52.010;4.446;2023-02-03T04:05:04;9.90;99.90
41294;DHT22;27037;52.010;4.446;2023-02-03T04:07:48;9.90;99.90
41294;DHT22;27037;52.010;4.446;2023-02-03T04:10:31;9.90;99.90
41294;DHT22;27037;52.010;4.446;2023-02-03T04:12:57;9.90;99.90
41294;DHT22;27037;52.010;4.446;2023-02-03T04:15:22;9.90;99.90
41294;DHT22;27037;52.010;4.446;2023-02-03T04:17:48;9.90;99.90
41294;DHT22;27037;52.010;4.446;2023-02-03T04:20:14;9.90;99.90
41294;DHT22;27037;52.010;4.446;2023-02-03T04:22:40;9.90;99.90
41294;DHT22;27037;52.010;4.446;2023-02-03T04:25:06;9.90;99.90
41294;DHT22;27037;52.010;4.446;2023-02-03T04:27:31;9.90;99.90
41294;DHT22;27037;52.010;4.446;2023-02-03T04:29:57;9.90;99.90
41294;DHT22;27037;52.010;4.446;2023-02-03T04:32:23;9.90;99.90
41294;DHT22;27037;52.010;4.446;2023-02-03T04:34:48;9.90;99.90
41294;DHT22;27037;52.010;4.446;2023-02-03T04:37:14;9.90;99.90
41294;DHT22;27037;52.010;4.446;2023-02-03T04:39:40;9.90;99.90
41294;DHT22;27037;52.010;4.446;2023-02-03T04:42:05;9.90;99.90
41294;DHT22;27037;52.010;4.446;2023-02-03T04:44:31;9.90;99.90
41294;DHT22;27037;52.010;4.446;2023-02-03T04:46:57;9.90;99.90
41294;DHT22;27037;52.010;4.446;2023-02-03T04:49:22;9.90;99.90
41294;DHT22;27037;52.010;4.446;2023-02-03T04:51:48;9.90;99.90
41294;DHT22;27037;52.010;4.446;2023-02-03T04:54:14;9.90;99.90
41294;DHT22;27037;52.010;4.446;2023-02-03T04:56:40;9.90;99.90
41294;DHT22;27037;52.010;4.446;2023-02-03T04:59:06;9.90;99.90
41294;DHT22;27037;52.010;4.446;2023-02-03T05:01:32;9.90;99.90
41294;DHT22;27037;52.010;4.446;2023-02-03T05:03:57;9.90;99.90
41294;DHT22;27037;52.010;4.446;2023-02-03T05:06:24;9.90;99.90
41294;DHT22;27037;52.010;4.446;2023-02-03T05:08:51;9.80;99.90
41294;DHT22;27037;52.010;4.446;2023-02-03T05:11:16;9.80;99.90
41294;DHT22;27037;52.010;4.446;2023-02-03T05:13:42;9.80;99.90
41294;DHT22;27037;52.010;4.446;2023-02-03T05:16:08;9.80;99.90
41294;DHT22;27037;52.010;4.446;2023-02-03T05:18:33;9.90;99.90
41294;DHT22;27037;52.010;4.446;2023-02-03T05:20:59;9.90;99.90
41294;DHT22;27037;52.010;4.446;2023-02-03T05:23:24;9.90;99.90
41294;DHT22;27037;52.010;4.446;2023-02-03T05:25:50;9.90;99.90
41294;DHT22;27037;52.010;4.446;2023-02-03T05:28:16;9.90;99.90
41294;DHT22;27037;52.010;4.446;2023-02-03T05:30:41;9.80;99.90
41294;DHT22;27037;52.010;4.446;2023-02-03T05:33:07;9.80;99.90
41294;DHT22;27037;52.010;4.446;2023-02-03T05:35:32;9.80;99.90
41294;DHT22;27037;52.010;4.446;2023-02-03T05:37:58;9.80;99.90
41294;DHT22;27037;52.010;4.446;2023-02-03T05:40:24;9.80;99.90
41294;DHT22;27037;52.010;4.446;2023-02-03T05:43:08;9.80;99.90
41294;DHT22;27037;52.010;4.446;2023-02-03T05:45:34;9.80;99.90
41294;DHT22;27037;52.010;4.446;2023-02-03T05:48:00;9.80;99.90
41294;DHT22;27037;52.010;4.446;2023-02-03T05:50:29;9.80;99.90
41294;DHT22;27037;52.010;4.446;2023-02-03T05:53:01;9.80;99.90
41294;DHT22;27037;52.010;4.446;2023-02-03T05:55:28;9.80;99.90
41294;DHT22;27037;52.010;4.446;2023-02-03T05:57:54;9.80;99.90
41294;DHT22;27037;52.010;4.446;2023-02-03T06:00:20;9.80;99.90
41294;DHT22;27037;52.010;4.446;2023-02-03T06:02:53;9.80;99.90
41294;DHT22;27037;52.010;4.446;2023-02-03T06:05:20;9.80;99.90
41294;DHT22;27037;52.010;4.446;2023-02-03T06:07:46;9.80;99.90
41294;DHT22;27037;52.010;4.446;2023-02-03T06:10:12;9.80;99.90
41294;DHT22;27037;52.010;4.446;2023-02-03T06:12:38;9.80;99.90
41294;DHT22;27037;52.010;4.446;2023-02-03T06:15:04;9.80;99.90
41294;DHT22;27037;52.010;4.446;2023-02-03T06:17:30;9.80;99.90
41294;DHT22;27037;52.010;4.446;2023-02-03T06:19:56;9.80;99.90
41294;DHT22;27037;52.010;4.446;2023-02-03T06:22:22;9.80;99.90
41294;DHT22;27037;52.010;4.446;2023-02-03T06:24:48;9.70;99.90
41294;DHT22;27037;52.010;4.446;2023-02-03T06:27:14;9.70;99.90
41294;DHT22;27037;52.010;4.446;2023-02-03T06:29:40;9.70;99.90
41294;DHT22;27037;52.010;4.446;2023-02-03T06:32:06;9.70;99.90
41294;DHT22;27037;52.010;4.446;2023-02-03T06:34:32;9.70;99.90
41294;DHT22;27037;52.010;4.446;2023-02-03T06:36:58;9.60;99.90
41294;DHT22;27037;52.010;4.446;2023-02-03T06:39:24;9.60;99.90
41294;DHT22;27037;52.010;4.446;2023-02-03T06:41:49;9.60;99.90
41294;DHT22;27037;52.010;4.446;2023-02-03T06:44:16;9.60;99.90
41294;DHT22;27037;52.010;4.446;2023-02-03T06:46:42;9.60;99.90
41294;DHT22;27037;52.010;4.446;2023-02-03T06:49:08;9.60;99.90
41294;DHT22;27037;52.010;4.446;2023-02-03T06:51:34;9.60;99.90
41294;DHT22;27037;52.010;4.446;2023-02-03T06:54:00;9.60;99.90
41294;DHT22;27037;52.010;4.446;2023-02-03T06:56:25;9.70;99.90
41294;DHT22;27037;52.010;4.446;2023-02-03T06:58:51;9.70;99.90
41294;DHT22;27037;52.010;4.446;2023-02-03T07:01:16;9.70;99.90
41294;DHT22;27037;52.010;4.446;2023-02-03T07:03:42;9.70;99.90
41294;DHT22;27037;52.010;4.446;2023-02-03T07:06:08;9.70;99.90
41294;DHT22;27037;52.010;4.446;2023-02-03T07:08:34;9.70;99.90
41294;DHT22;27037;52.010;4.446;2023-02-03T07:10:59;9.70;99.90
41294;DHT22;27037;52.010;4.446;2023-02-03T07:13:25;9.70;99.90
41294;DHT22;27037;52.010;4.446;2023-02-03T07:15:51;9.70;99.90
41294;DHT22;27037;52.010;4.446;2023-02-03T07:18:17;9.80;99.90
41294;DHT22;27037;52.010;4.446;2023-02-03T07:20:45;9.70;99.90
41294;DHT22;27037;52.010;4.446;2023-02-03T07:23:11;9.80;99.90
41294;DHT22;27037;52.010;4.446;2023-02-03T07:25:37;9.80;99.90
41294;DHT22;27037;52.010;4.446;2023-02-03T07:28:02;9.80;99.90
41294;DHT22;27037;52.010;4.446;2023-02-03T07:30:28;9.80;99.90
41294;DHT22;27037;52.010;4.446;2023-02-03T07:32:53;9.80;99.90
41294;DHT22;27037;52.010;4.446;2023-02-03T07:35:20;9.80;99.90
41294;DHT22;27037;52.010;4.446;2023-02-03T07:37:45;9.80;99.90
41294;DHT22;27037;52.010;4.446;2023-02-03T07:40:12;9.80;99.90
41294;DHT22;27037;52.010;4.446;2023-02-03T07:42:45;9.80;99.90
41294;DHT22;27037;52.010;4.446;2023-02-03T07:45:12;9.80;99.90
41294;DHT22;27037;52.010;4.446;2023-02-03T07:47:39;9.80;99.90
41294;DHT22;27037;52.010;4.446;2023-02-03T07:50:06;9.80;99.90
41294;DHT22;27037;52.010;4.446;2023-02-03T07:52:31;9.80;99.90
41294;DHT22;27037;52.010;4.446;2023-02-03T07:54:57;9.80;99.90
41294;DHT22;27037;52.010;4.446;2023-02-03T07:57:23;9.80;99.90
41294;DHT22;27037;52.010;4.446;2023-02-03T07:59:48;9.80;99.90
41294;DHT22;27037;52.010;4.446;2023-02-03T08:02:14;9.80;99.90
41294;DHT22;27037;52.010;4.446;2023-02-03T08:04:39;9.90;99.90
41294;DHT22;27037;52.010;4.446;2023-02-03T08:07:05;9.90;99.90
41294;DHT22;27037;52.010;4.446;2023-02-03T08:09:31;9.90;99.90
41294;DHT22;27037;52.010;4.446;2023-02-03T08:11:56;9.90;99.90
41294;DHT22;27037;52.010;4.446;2023-02-03T08:14:22;9.90;99.90
41294;DHT22;27037;52.010;4.446;2023-02-03T08:16:48;9.90;99.90
41294;DHT22;27037;52.010;4.446;2023-02-03T08:19:13;9.90;99.90
41294;DHT22;27037;52.010;4.446;2023-02-03T08:21:39;10.00;99.90
41294;DHT22;27037;52.010;4.446;2023-02-03T08:24:05;10.00;99.90
41294;DHT22;27037;52.010;4.446;2023-02-03T08:26:30;10.00;99.90
41294;DHT22;27037;52.010;4.446;2023-02-03T08:28:56;10.00;99.90
41294;DHT22;27037;52.010;4.446;2023-02-03T08:31:21;10.00;99.90
41294;DHT22;27037;52.010;4.446;2023-02-03T08:33:47;10.00;99.90
41294;DHT22;27037;52.010;4.446;2023-02-03T08:36:13;10.00;99.90
41294;DHT22;27037;52.010;4.446;2023-02-03T08:38:39;10.00;99.90
41294;DHT22;27037;52.010;4.446;2023-02-03T08:41:10;10.00;99.90
41294;DHT22;27037;52.010;4.446;2023-02-03T08:43:36;10.00;99.90
41294;DHT22;27037;52.010;4.446;2023-02-03T08:46:04;10.00;99.90
41294;DHT22;27037;52.010;4.446;2023-02-03T08:48:30;10.00;99.90
41294;DHT22;27037;52.010;4.446;2023-02-03T08:50:56;10.00;99.90
41294;DHT22;27037;52.010;4.446;2023-02-03T08:53:21;10.00;99.90
41294;DHT22;27037;52.010;4.446;2023-02-03T08:55:47;10.00;99.90
41294;DHT22;27037;52.010;4.446;2023-02-03T08:58:13;9.90;99.90
41294;DHT22;27037;52.010;4.446;2023-02-03T09:00:38;10.00;99.90
41294;DHT22;27037;52.010;4.446;2023-02-03T09:03:04;10.00;99.90
41294;DHT22;27037;52.010;4.446;2023-02-03T09:05:35;10.00;99.90
41294;DHT22;27037;52.010;4.446;2023-02-03T09:08:01;10.00;99.90
41294;DHT22;27037;52.010;4.446;2023-02-03T09:10:27;10.00;99.90
41294;DHT22;27037;52.010;4.446;2023-02-03T09:12:53;10.00;99.90
41294;DHT22;27037;52.010;4.446;2023-02-03T09:15:18;10.00;99.90
41294;DHT22;27037;52.010;4.446;2023-02-03T09:17:44;10.00;99.90
41294;DHT22;27037;52.010;4.446;2023-02-03T09:20:10;10.00;99.90
41294;DHT22;27037;52.010;4.446;2023-02-03T09:22:38;10.00;99.90
41294;DHT22;27037;52.010;4.446;2023-02-03T09:25:04;10.00;99.90
41294;DHT22;27037;52.010;4.446;2023-02-03T09:27:30;10.00;99.90
41294;DHT22;27037;52.010;4.446;2023-02-03T09:29:56;10.00;99.90
41294;DHT22;27037;52.010;4.446;2023-02-03T09:32:23;10.00;99.90
41294;DHT22;27037;52.010;4.446;2023-02-03T09:34:48;10.10;99.90
41294;DHT22;27037;52.010;4.446;2023-02-03T09:37:14;10.10;99.90
41294;DHT22;27037;52.010;4.446;2023-02-03T09:39:40;10.10;99.90
41294;DHT22;27037;52.010;4.446;2023-02-03T09:47:38;10.20;99.90
41294;DHT22;27037;52.010;4.446;2023-02-03T09:50:18;10.20;99.90
41294;DHT22;27037;52.010;4.446;2023-02-03T09:52:45;10.30;99.90
41294;DHT22;27037;52.010;4.446;2023-02-03T09:55:26;10.40;99.90
41294;DHT22;27037;52.010;4.446;2023-02-03T09:58:03;10.40;99.90
41294;DHT22;27037;52.010;4.446;2023-02-03T10:00:44;10.40;99.90
41294;DHT22;27037;52.010;4.446;2023-02-03T10:03:36;10.50;99.90
41294;DHT22;27037;52.010;4.446;2023-02-03T10:06:07;10.50;99.90
41294;DHT22;27037;52.010;4.446;2023-02-03T10:14:11;10.60;99.90
41294;DHT22;27037;52.010;4.446;2023-02-03T10:22:12;10.70;99.90
41294;DHT22;27037;52.010;4.446;2023-02-03T10:25:35;10.80;99.90
41294;DHT22;27037;52.010;4.446;2023-02-03T10:27:36;10.80;99.90
41294;DHT22;27037;52.010;4.446;2023-02-03T10:30:23;10.90;99.90
41294;DHT22;27037;52.010;4.446;2023-02-03T10:32:54;10.90;99.90
41294;DHT22;27037;52.010;4.446;2023-02-03T10:35:31;10.90;99.90
41294;DHT22;27037;52.010;4.446;2023-02-03T10:37:57;11.00;99.90
41294;DHT22;27037;52.010;4.446;2023-02-03T10:40:24;11.00;99.90
41294;DHT22;27037;52.010;4.446;2023-02-03T10:42:51;11.00;99.90
41294;DHT22;27037;52.010;4.446;2023-02-03T10:45:37;11.00;99.90
41294;DHT22;27037;52.010;4.446;2023-02-03T10:48:05;11.00;99.90
41294;DHT22;27037;52.010;4.446;2023-02-03T10:50:35;11.10;99.90
41294;DHT22;27037;52.010;4.446;2023-02-03T10:53:23;11.10;99.90
41294;DHT22;27037;52.010;4.446;2023-02-03T10:56:02;11.10;99.90
41294;DHT22;27037;52.010;4.446;2023-02-03T10:58:30;11.10;99.90
41294;DHT22;27037;52.010;4.446;2023-02-03T11:01:10;11.10;99.90
41294;DHT22;27037;52.010;4.446;2023-02-03T11:03:37;11.10;99.90
41294;DHT22;27037;52.010;4.446;2023-02-03T11:06:12;11.10;99.90
41294;DHT22;27037;52.010;4.446;2023-02-03T11:08:42;11.10;99.90
41294;DHT22;27037;52.010;4.446;2023-02-03T11:11:13;11.10;99.90
41294;DHT22;27037;52.010;4.446;2023-02-03T11:13:39;11.10;99.90
41294;DHT22;27037;52.010;4.446;2023-02-03T11:16:12;11.10;99.90
41294;DHT22;27037;52.010;4.446;2023-02-03T11:18:51;11.10;99.90
41294;DHT22;27037;52.010;4.446;2023-02-03T11:26:42;11.20;99.90
41294;DHT22;27037;52.010;4.446;2023-02-03T11:29:36;11.20;99.90
41294;DHT22;27037;52.010;4.446;2023-02-03T11:32:19;11.20;99.90
41294;DHT22;27037;52.010;4.446;2023-02-03T11:34:55;11.20;99.90
41294;DHT22;27037;52.010;4.446;2023-02-03T11:37:33;11.20;99.90
41294;DHT22;27037;52.010;4.446;2023-02-03T11:42:38;11.20;99.90
41294;DHT22;27037;52.010;4.446;2023-02-03T11:48:01;11.20;99.90
41294;DHT22;27037;52.010;4.446;2023-02-03T11:50:33;11.20;99.90
41294;DHT22;27037;52.010;4.446;2023-02-03T11:58:56;11.20;99.90
41294;DHT22;27037;52.010;4.446;2023-02-03T12:15:18;11.20;99.90
41294;DHT22;27037;52.010;4.446;2023-02-03T12:23:14;11.20;99.90
41294;DHT22;27037;52.010;4.446;2023-02-03T12:26:04;11.20;99.90
41294;DHT22;27037;52.010;4.446;2023-02-03T12:33:46;11.20;99.90
41294;DHT22;27037;52.010;4.446;2023-02-03T12:36:22;11.20;99.90
41294;DHT22;27037;52.010;4.446;2023-02-03T12:41:39;11.20;99.90
41294;DHT22;27037;52.010;4.446;2023-02-03T12:44:15;11.20;99.90
41294;DHT22;27037;52.010;4.446;2023-02-03T12:46:45;11.20;99.90
41294;DHT22;27037;52.010;4.446;2023-02-03T12:49:34;11.20;99.90
41294;DHT22;27037;52.010;4.446;2023-02-03T12:52:13;11.20;99.90
41294;DHT22;27037;52.010;4.446;2023-02-03T12:57:43;11.30;99.90
41294;DHT22;27037;52.010;4.446;2023-02-03T13:00:33;11.20;99.90
41294;DHT22;27037;52.010;4.446;2023-02-03T13:08:37;11.30;99.90
41294;DHT22;27037;52.010;4.446;2023-02-03T13:13:50;11.30;99.90
41294;DHT22;27037;52.010;4.446;2023-02-03T13:16:20;11.30;99.90
41294;DHT22;27037;52.010;4.446;2023-02-03T13:18:52;11.30;99.90
41294;DHT22;27037;52.010;4.446;2023-02-03T13:21:20;11.30;99.90
41294;DHT22;27037;52.010;4.446;2023-02-03T13:23:45;11.30;99.90
41294;DHT22;27037;52.010;4.446;2023-02-03T13:34:48;11.20;99.90
41294;DHT22;27037;52.010;4.446;2023-02-03T13:38:05;11.20;99.90
41294;DHT22;27037;52.010;4.446;2023-02-03T13:42:55;11.10;99.90
41294;DHT22;27037;52.010;4.446;2023-02-03T13:45:38;11.00;99.90
41294;DHT22;27037;52.010;4.446;2023-02-03T13:48:17;11.00;99.90
41294;DHT22;27037;52.010;4.446;2023-02-03T13:50:44;11.00;99.90
41294;DHT22;27037;52.010;4.446;2023-02-03T13:53:20;11.00;99.90
41294;DHT22;27037;52.010;4.446;2023-02-03T13:55:55;11.00;99.90
41294;DHT22;27037;52.010;4.446;2023-02-03T13:58:34;11.00;99.90
41294;DHT22;27037;52.010;4.446;2023-02-03T14:01:02;11.00;99.90
41294;DHT22;27037;52.010;4.446;2023-02-03T14:05:56;11.00;99.90
41294;DHT22;27037;52.010;4.446;2023-02-03T14:16:36;11.00;99.90
41294;DHT22;27037;52.010;4.446;2023-02-03T14:19:03;11.00;99.90
41294;DHT22;27037;52.010;4.446;2023-02-03T14:21:39;11.00;99.90
41294;DHT22;27037;52.010;4.446;2023-02-03T14:24:08;11.00;99.90
41294;DHT22;27037;52.010;4.446;2023-02-03T14:26:53;11.00;99.90
41294;DHT22;27037;52.010;4.446;2023-02-03T14:32:09;11.00;99.90
41294;DHT22;27037;52.010;4.446;2023-02-03T14:34:40;10.90;99.90
41294;DHT22;27037;52.010;4.446;2023-02-03T14:37:22;10.90;99.90
41294;DHT22;27037;52.010;4.446;2023-02-03T14:39:56;10.90;99.90
41294;DHT22;27037;52.010;4.446;2023-02-03T14:50:37;10.80;99.90
41294;DHT22;27037;52.010;4.446;2023-02-03T14:56:13;10.80;99.90
41294;DHT22;27037;52.010;4.446;2023-02-03T14:58:44;10.80;99.90
41294;DHT22;27037;52.010;4.446;2023-02-03T15:06:41;10.70;99.90
41294;DHT22;27037;52.010;4.446;2023-02-03T15:12:19;10.70;99.90
41294;DHT22;27037;52.010;4.446;2023-02-03T15:14:46;10.70;99.90
41294;DHT22;27037;52.010;4.446;2023-02-03T15:19:45;10.60;99.90
41294;DHT22;27037;52.010;4.446;2023-02-03T15:22:20;10.60;99.90
41294;DHT22;27037;52.010;4.446;2023-02-03T15:24:47;10.50;99.90
41294;DHT22;27037;52.010;4.446;2023-02-03T15:27:26;10.50;99.90
41294;DHT22;27037;52.010;4.446;2023-02-03T15:29:53;10.50;99.90
41294;DHT22;27037;52.010;4.446;2023-02-03T15:32:31;10.50;99.90
41294;DHT22;27037;52.010;4.446;2023-02-03T15:35:02;10.50;99.90
41294;DHT22;27037;52.010;4.446;2023-02-03T15:40:20;10.50;99.90
41294;DHT22;27037;52.010;4.446;2023-02-03T15:42:56;10.50;99.90
41294;DHT22;27037;52.010;4.446;2023-02-03T15:45:32;10.50;99.90
41294;DHT22;27037;52.010;4.446;2023-02-03T15:50:36;10.40;99.90
41294;DHT22;27037;52.010;4.446;2023-02-03T15:53:08;10.40;99.90
41294;DHT22;27037;52.010;4.446;2023-02-03T15:55:35;10.40;99.90
41294;DHT22;27037;52.010;4.446;2023-02-03T15:58:03;10.40;99.90
41294;DHT22;27037;52.010;4.446;2023-02-03T16:00:33;10.40;99.90
41294;DHT22;27037;52.010;4.446;2023-02-03T16:03:01;10.40;99.90
41294;DHT22;27037;52.010;4.446;2023-02-03T16:05:34;10.30;99.90
41294;DHT22;27037;52.010;4.446;2023-02-03T16:08:26;10.30;99.90
41294;DHT22;27037;52.010;4.446;2023-02-03T16:10:55;10.30;99.90
41294;DHT22;27037;52.010;4.446;2023-02-03T16:13:23;10.30;99.90
41294;DHT22;27037;52.010;4.446;2023-02-03T16:16:02;10.30;99.90
41294;DHT22;27037;52.010;4.446;2023-02-03T16:18:29;10.30;99.90
41294;DHT22;27037;52.010;4.446;2023-02-03T16:20:57;10.30;99.90
41294;DHT22;27037;52.010;4.446;2023-02-03T16:23:24;10.30;99.90
41294;DHT22;27037;52.010;4.446;2023-02-03T16:26:18;10.20;99.90
41294;DHT22;27037;52.010;4.446;2023-02-03T16:29:13;10.20;99.90
41294;DHT22;27037;52.010;4.446;2023-02-03T16:31:58;10.20;99.90
41294;DHT22;27037;52.010;4.446;2023-02-03T16:34:43;10.20;99.90
41294;DHT22;27037;52.010;4.446;2023-02-03T16:37:31;10.10;99.90
41294;DHT22;27037;52.010;4.446;2023-02-03T16:40:22;10.10;99.90
41294;DHT22;27037;52.010;4.446;2023-02-03T16:43:12;10.10;99.90
41294;DHT22;27037;52.010;4.446;2023-02-03T16:45:58;10.10;99.90
41294;DHT22;27037;52.010;4.446;2023-02-03T16:48:42;10.10;99.90
41294;DHT22;27037;52.010;4.446;2023-02-03T16:51:37;10.10;99.90
41294;DHT22;27037;52.010;4.446;2023-02-03T16:54:04;10.10;99.90
41294;DHT22;27037;52.010;4.446;2023-02-03T16:56:30;10.10;99.90
41294;DHT22;27037;52.010;4.446;2023-02-03T16:58:56;10.10;99.90
41294;DHT22;27037;52.010;4.446;2023-02-03T17:01:21;10.10;99.90
41294;DHT22;27037;52.010;4.446;2023-02-03T17:03:47;10.10;99.90
41294;DHT22;27037;52.010;4.446;2023-02-03T17:06:12;10.00;99.90
41294;DHT22;27037;52.010;4.446;2023-02-03T17:08:39;10.00;99.90
41294;DHT22;27037;52.010;4.446;2023-02-03T17:11:14;10.00;99.90
41294;DHT22;27037;52.010;4.446;2023-02-03T17:13:40;10.00;99.90
41294;DHT22;27037;52.010;4.446;2023-02-03T17:16:19;10.00;99.90
41294;DHT22;27037;52.010;4.446;2023-02-03T17:18:45;10.00;99.90
41294;DHT22;27037;52.010;4.446;2023-02-03T17:21:16;10.00;99.90
41294;DHT22;27037;52.010;4.446;2023-02-03T17:23:42;10.00;99.90
41294;DHT22;27037;52.010;4.446;2023-02-03T17:26:08;10.00;99.90
41294;DHT22;27037;52.010;4.446;2023-02-03T17:28:34;9.90;99.90
41294;DHT22;27037;52.010;4.446;2023-02-03T17:31:03;10.00;99.90
41294;DHT22;27037;52.010;4.446;2023-02-03T17:33:29;9.90;99.90
41294;DHT22;27037;52.010;4.446;2023-02-03T17:36:15;9.90;99.90
41294;DHT22;27037;52.010;4.446;2023-02-03T17:38:44;9.90;99.90
41294;DHT22;27037;52.010;4.446;2023-02-03T17:43:35;9.90;99.90
41294;DHT22;27037;52.010;4.446;2023-02-03T17:46:01;9.90;99.90
41294;DHT22;27037;52.010;4.446;2023-02-03T17:48:26;9.90;99.90
41294;DHT22;27037;52.010;4.446;2023-02-03T17:50:52;9.90;99.90
41294;DHT22;27037;52.010;4.446;2023-02-03T17:53:17;9.90;99.90
41294;DHT22;27037;52.010;4.446;2023-02-03T17:55:43;9.90;99.90
41294;DHT22;27037;52.010;4.446;2023-02-03T17:58:08;9.90;99.90
41294;DHT22;27037;52.010;4.446;2023-02-03T18:00:34;9.90;99.90
41294;DHT22;27037;52.010;4.446;2023-02-03T18:03:00;9.90;99.90
41294;DHT22;27037;52.010;4.446;2023-02-03T18:05:25;9.90;99.90
41294;DHT22;27037;52.010;4.446;2023-02-03T18:07:53;9.90;99.90
41294;DHT22;27037;52.010;4.446;2023-02-03T18:10:18;9.90;99.90
41294;DHT22;27037;52.010;4.446;2023-02-03T18:12:45;9.90;99.90
41294;DHT22;27037;52.010;4.446;2023-02-03T18:15:11;9.80;99.90
41294;DHT22;27037;52.010;4.446;2023-02-03T18:17:36;9.90;99.90
41294;DHT22;27037;52.010;4.446;2023-02-03T18:20:02;9.90;99.90
41294;DHT22;27037;52.010;4.446;2023-02-03T18:22:28;9.90;99.90
41294;DHT22;27037;52.010;4.446;2023-02-03T18:24:54;9.90;99.90